createdAt,value
2023-04-15T00:01:10.850Z,88.92
2023-04-15T00:03:38.412Z,88.83
2023-04-15T00:06:06.319Z,88.83
2023-04-15T00:08:33.987Z,88.95
2023-04-15T00:11:03.417Z,88.88
2023-04-15T00:13:30.856Z,88.57
2023-04-15T00:15:58.488Z,88.62
2023-04-15T00:18:25.883Z,88.57
2023-04-15T00:20:53.808Z,88.39
2023-04-15T00:23:20.977Z,88.08
2023-04-15T00:25:48.188Z,88.34
2023-04-15T00:28:15.456Z,88.29
2023-04-15T00:30:43.163Z,88.31
2023-04-15T00:33:11.107Z,88.42
2023-04-15T00:35:38.999Z,88.23
2023-04-15T00:38:08.701Z,88.25
2023-04-15T00:40:36.149Z,88.07
2023-04-15T00:43:04.572Z,88.06
2023-04-15T00:45:32.261Z,88.13
2023-04-15T00:48:00.156Z,88.00
2023-04-15T00:50:27.452Z,87.99
2023-04-15T00:52:54.829Z,88.14
2023-04-15T00:55:22.231Z,88.09
2023-04-15T00:57:49.616Z,88.24
2023-04-15T01:00:17.188Z,88.07
2023-04-15T01:02:47.037Z,88.07
2023-04-15T01:05:15.000Z,87.97
2023-04-15T01:07:42.319Z,88.19
2023-04-15T01:10:10.013Z,88.07
2023-04-15T01:12:38.270Z,88.27
2023-04-15T01:15:06.156Z,87.88
2023-04-15T01:17:33.674Z,87.94
2023-04-15T01:20:01.049Z,87.88
2023-04-15T01:22:31.896Z,87.78
2023-04-15T01:25:08.644Z,87.84
2023-04-15T01:27:40.332Z,87.79
2023-04-15T01:30:08.860Z,87.47
2023-04-15T01:32:36.733Z,87.48
2023-04-15T01:35:04.079Z,87.81
2023-04-15T01:37:31.700Z,87.78
2023-04-15T01:39:58.897Z,87.74
2023-04-15T01:42:26.808Z,87.94
2023-04-15T01:44:54.162Z,87.77
2023-04-15T01:47:21.466Z,87.60
2023-04-15T01:49:48.995Z,87.52
2023-04-15T01:52:16.302Z,87.52
2023-04-15T01:54:43.700Z,87.68
2023-04-15T01:57:12.773Z,87.99
2023-04-15T01:59:39.960Z,88.11
2023-04-15T02:02:07.428Z,88.17
2023-04-15T02:04:35.021Z,88.25
2023-04-15T02:07:02.371Z,88.07
2023-04-15T02:09:29.631Z,88.37
2023-04-15T02:11:57.904Z,88.47
2023-04-15T02:14:25.229Z,88.48
2023-04-15T02:16:55.076Z,88.32
2023-04-15T02:19:22.555Z,88.43
2023-04-15T02:21:49.805Z,88.33
2023-04-15T02:24:18.578Z,88.23
2023-04-15T02:26:47.056Z,88.04
2023-04-15T02:29:16.285Z,87.89
2023-04-15T02:31:44.348Z,87.58
2023-04-15T02:34:11.814Z,87.04
2023-04-15T02:36:41.015Z,87.17
2023-04-15T02:39:08.386Z,86.98
2023-04-15T02:41:35.870Z,86.97
2023-04-15T02:44:04.691Z,86.71
2023-04-15T02:46:32.579Z,86.70
2023-04-15T02:49:00.556Z,86.57
2023-04-15T02:51:32.268Z,86.21
2023-04-15T02:53:59.642Z,86.36
2023-04-15T02:56:27.924Z,86.02
2023-04-15T02:58:56.776Z,86.13
2023-04-15T03:01:24.311Z,85.87
2023-04-15T03:03:51.673Z,85.88
2023-04-15T03:06:18.989Z,85.75
2023-04-15T03:08:46.346Z,85.67
2023-04-15T03:11:15.771Z,85.65
2023-04-15T03:13:43.784Z,85.83
2023-04-15T03:16:22.751Z,85.65
2023-04-15T03:18:50.051Z,85.46
2023-04-15T03:21:17.829Z,85.12
2023-04-15T03:23:46.522Z,85.29
2023-04-15T03:26:27.382Z,85.23
2023-04-15T03:28:56.606Z,85.04
2023-04-15T03:31:24.706Z,85.56
2023-04-15T03:33:52.055Z,85.15
2023-04-15T03:36:19.325Z,85.13
2023-04-15T03:38:46.804Z,85.06
2023-04-15T03:41:14.325Z,84.99
2023-04-15T03:43:41.594Z,84.89
2023-04-15T03:46:09.009Z,85.19
2023-04-15T03:48:36.574Z,85.34
2023-04-15T03:51:03.924Z,85.31
2023-04-15T03:53:31.182Z,85.35
2023-04-15T03:55:58.384Z,85.35
2023-04-15T03:58:25.876Z,85.54
2023-04-15T04:00:53.155Z,85.28
2023-04-15T04:03:20.652Z,85.47
2023-04-15T04:05:47.971Z,85.18
2023-04-15T04:08:16.692Z,85.15
2023-04-15T04:10:43.912Z,85.37
2023-04-15T04:13:11.573Z,85.21
2023-04-15T04:15:38.921Z,85.00
2023-04-15T04:18:06.301Z,85.02
2023-04-15T04:20:34.320Z,84.95
2023-04-15T04:23:01.751Z,85.18
2023-04-15T04:25:29.015Z,85.18
2023-04-15T04:27:56.464Z,85.19
2023-04-15T04:30:23.633Z,85.39
2023-04-15T04:32:52.019Z,85.25
2023-04-15T04:35:19.335Z,84.74
2023-04-15T04:37:46.614Z,84.50
2023-04-15T04:40:14.249Z,84.47
2023-04-15T04:42:41.891Z,84.65
2023-04-15T04:45:09.610Z,84.76
2023-04-15T04:47:37.136Z,84.73
2023-04-15T04:50:04.577Z,84.63
2023-04-15T04:52:32.196Z,84.61
2023-04-15T04:54:59.432Z,84.52
2023-04-15T04:57:26.906Z,84.49
2023-04-15T04:59:54.173Z,84.19
2023-04-15T05:02:21.842Z,84.14
2023-04-15T05:04:50.517Z,84.39
2023-04-15T05:07:17.818Z,84.09
2023-04-15T05:09:45.040Z,84.07
2023-04-15T05:12:15.682Z,83.66
2023-04-15T05:14:43.345Z,83.78
2023-04-15T05:17:11.659Z,82.91
2023-04-15T05:19:38.933Z,83.20
2023-04-15T05:22:06.541Z,83.06
2023-04-15T05:24:33.911Z,82.52
2023-04-15T05:27:02.480Z,83.00
2023-04-15T05:29:29.831Z,82.80
2023-04-15T05:31:57.422Z,82.23
2023-04-15T05:34:24.730Z,81.55
2023-04-15T05:36:52.926Z,81.69
2023-04-15T05:39:20.222Z,82.01
2023-04-15T05:41:47.432Z,81.40
2023-04-15T05:44:14.741Z,80.60
2023-04-15T05:46:42.264Z,81.32
2023-04-15T05:49:09.661Z,80.94
2023-04-15T05:51:37.035Z,80.95
2023-04-15T05:54:04.448Z,80.51
2023-04-15T05:56:32.087Z,80.06
2023-04-15T05:58:59.661Z,79.38
2023-04-15T06:01:27.150Z,78.88
2023-04-15T06:03:54.647Z,79.30
2023-04-15T06:06:22.038Z,78.70
2023-04-15T06:08:49.962Z,78.12
2023-04-15T06:11:17.212Z,78.68
2023-04-15T06:13:44.592Z,78.78
2023-04-15T06:16:12.319Z,77.65
2023-04-15T06:18:39.714Z,78.18
2023-04-15T06:21:07.418Z,76.64
2023-04-15T06:23:38.053Z,75.39
2023-04-15T06:26:05.419Z,75.13
2023-04-15T06:28:32.737Z,74.77
2023-04-15T06:31:00.074Z,73.39
2023-04-15T06:33:27.450Z,72.49
2023-04-15T06:35:54.681Z,69.74
2023-04-15T06:38:22.077Z,71.12
2023-04-15T06:40:49.333Z,69.43
2023-04-15T06:43:16.642Z,67.58
2023-04-15T06:45:43.952Z,67.75
2023-04-15T06:48:11.299Z,67.09
2023-04-15T06:50:38.715Z,65.53
2023-04-15T06:53:06.232Z,64.49
2023-04-15T06:55:34.321Z,64.18
2023-04-15T06:58:01.670Z,61.93
2023-04-15T07:00:29.140Z,59.66
2023-04-15T07:02:56.958Z,60.55
2023-04-15T07:05:24.240Z,60.04
2023-04-15T07:07:51.839Z,59.55
2023-04-15T07:10:19.122Z,57.92
2023-04-15T07:12:46.557Z,58.70
2023-04-15T07:15:13.881Z,57.24
2023-04-15T07:17:43.587Z,58.58
2023-04-15T07:20:11.349Z,58.72
2023-04-15T07:22:38.729Z,57.86
2023-04-15T07:25:06.899Z,56.26
2023-04-15T07:27:34.339Z,57.19
2023-04-15T07:30:01.629Z,56.24
2023-04-15T07:32:28.842Z,56.63
2023-04-15T07:34:56.141Z,53.46
2023-04-15T07:37:23.733Z,52.27
2023-04-15T07:39:51.071Z,51.55
2023-04-15T07:42:18.452Z,48.40
2023-04-15T07:44:46.014Z,47.66
2023-04-15T07:47:13.329Z,45.85
2023-04-15T07:49:41.762Z,44.07
2023-04-15T07:52:09.163Z,45.16
2023-04-15T07:54:37.744Z,44.31
2023-04-15T07:57:05.155Z,44.64
2023-04-15T07:59:34.105Z,43.23
2023-04-15T08:02:01.533Z,44.60
2023-04-15T08:04:29.195Z,41.91
2023-04-15T08:06:56.475Z,41.25
2023-04-15T08:09:23.823Z,40.56
2023-04-15T08:11:53.987Z,40.70
2023-04-15T08:14:21.353Z,40.57
2023-04-15T08:16:48.731Z,42.16
2023-04-15T08:19:16.187Z,42.17
2023-04-15T08:21:43.565Z,42.79
2023-04-15T08:24:11.994Z,42.74
2023-04-15T08:26:39.278Z,42.31
2023-04-15T08:29:06.608Z,43.18
2023-04-15T08:31:33.946Z,42.60
2023-04-15T08:34:01.624Z,42.74
2023-04-15T08:36:28.909Z,43.49
2023-04-15T08:38:56.528Z,43.96
2023-04-15T08:41:25.911Z,43.72
2023-04-15T08:43:55.044Z,44.41
2023-04-15T08:46:23.046Z,45.72
2023-04-15T08:48:50.780Z,45.22
2023-04-15T08:51:18.952Z,45.35
2023-04-15T08:53:47.763Z,45.39
2023-04-15T08:56:17.131Z,47.04
2023-04-15T08:58:45.293Z,46.14
2023-04-15T09:01:13.680Z,46.02
2023-04-15T09:03:42.403Z,47.01
2023-04-15T09:06:10.191Z,47.03
2023-04-15T09:08:37.639Z,47.59
2023-04-15T09:11:05.004Z,47.58
2023-04-15T09:13:32.564Z,47.40
2023-04-15T09:16:04.173Z,47.76
2023-04-15T09:18:34.613Z,48.13
2023-04-15T09:21:09.143Z,47.17
2023-04-15T09:23:38.053Z,48.32
2023-04-15T09:26:05.981Z,48.52
2023-04-15T09:28:33.560Z,49.33
2023-04-15T09:31:02.363Z,48.83
2023-04-15T09:33:30.504Z,49.65
2023-04-15T09:36:03.003Z,48.78
2023-04-15T09:38:30.387Z,50.08
2023-04-15T09:40:58.544Z,49.78
2023-04-15T09:43:52.099Z,49.61
2023-04-15T09:46:19.955Z,50.41
2023-04-15T09:48:47.371Z,49.48
2023-04-15T09:51:14.739Z,51.17
2023-04-15T09:53:42.112Z,51.92
2023-04-15T09:56:11.050Z,50.63
2023-04-15T09:58:39.232Z,50.96
2023-04-15T10:01:08.038Z,50.44
2023-04-15T10:03:39.495Z,51.06
2023-04-15T10:06:07.262Z,51.04
2023-04-15T10:08:37.752Z,50.79
2023-04-15T10:11:06.993Z,51.90
2023-04-15T10:13:36.673Z,51.85
2023-04-15T10:16:14.764Z,51.64
2023-04-15T10:18:45.336Z,51.08
2023-04-15T10:21:14.713Z,51.15
2023-04-15T10:23:42.160Z,51.37
2023-04-15T10:26:12.849Z,50.90
2023-04-15T10:28:40.112Z,50.43
2023-04-15T10:31:08.204Z,50.50
2023-04-15T10:33:36.187Z,51.74
2023-04-15T10:36:03.689Z,51.33
2023-04-15T10:38:43.150Z,50.71
2023-04-15T10:41:22.024Z,50.92
2023-04-15T10:43:53.252Z,50.44
2023-04-15T10:46:24.212Z,51.36
2023-04-15T10:48:54.756Z,50.22
2023-04-15T10:51:31.885Z,51.71
2023-04-15T10:54:02.573Z,51.41
2023-04-15T10:56:30.956Z,51.57
2023-04-15T10:59:00.880Z,51.42
2023-04-15T11:01:53.429Z,51.26
2023-04-15T11:04:57.915Z,52.19
2023-04-15T11:07:33.907Z,53.04
2023-04-15T11:10:02.218Z,53.52
2023-04-15T11:12:36.710Z,53.13
2023-04-15T11:15:25.796Z,52.11
2023-04-15T11:17:53.271Z,52.79
2023-04-15T11:20:20.602Z,53.01
2023-04-15T11:22:52.888Z,53.64
2023-04-15T11:25:40.307Z,53.88
2023-04-15T11:28:08.032Z,53.38
2023-04-15T11:30:37.862Z,53.28
2023-04-15T11:33:07.334Z,53.30
2023-04-15T11:35:35.638Z,53.18
2023-04-15T11:38:09.076Z,53.68
2023-04-15T11:40:36.630Z,53.80
2023-04-15T11:43:06.901Z,54.78
2023-04-15T11:45:34.967Z,54.96
2023-04-15T11:48:11.482Z,54.63
2023-04-15T11:50:41.655Z,55.09
2023-04-15T11:53:12.003Z,54.89
2023-04-15T11:55:47.388Z,55.05
2023-04-15T11:58:20.020Z,55.91
2023-04-15T12:00:59.166Z,56.76
2023-04-15T12:03:27.942Z,57.02
2023-04-15T12:06:04.768Z,57.48
2023-04-15T12:09:00.564Z,58.09
2023-04-15T12:11:27.768Z,58.72
2023-04-15T12:13:58.484Z,58.21
2023-04-15T12:16:26.427Z,58.21
2023-04-15T12:18:59.431Z,58.80
2023-04-15T12:21:29.588Z,57.45
2023-04-15T12:23:57.928Z,58.23
2023-04-15T12:26:30.909Z,58.86
2023-04-15T12:29:02.890Z,59.06
2023-04-15T12:31:30.777Z,59.38
2023-04-15T12:33:59.567Z,59.02
2023-04-15T12:36:27.500Z,59.16
2023-04-15T12:38:55.067Z,58.54
2023-04-15T12:41:22.825Z,58.86
2023-04-15T12:43:50.266Z,58.98
2023-04-15T12:46:17.716Z,59.35
2023-04-15T12:48:45.063Z,58.69
2023-04-15T12:51:12.337Z,57.78
2023-04-15T12:53:39.501Z,60.76
2023-04-15T12:56:06.975Z,62.79
2023-04-15T12:58:34.442Z,63.33
2023-04-15T13:01:01.673Z,64.14
2023-04-15T13:03:29.011Z,63.92
2023-04-15T13:05:58.303Z,64.44
2023-04-15T13:08:25.665Z,65.25
2023-04-15T13:10:52.832Z,65.58
2023-04-15T13:13:20.094Z,65.80
2023-04-15T13:15:47.567Z,65.34
2023-04-15T13:18:14.890Z,64.10
2023-04-15T13:20:42.363Z,64.22
2023-04-15T13:23:10.165Z,63.82
2023-04-15T13:25:37.354Z,63.38
2023-04-15T13:28:04.631Z,63.54
2023-04-15T13:30:31.883Z,62.87
2023-04-15T13:32:59.407Z,62.63
2023-04-15T13:35:26.691Z,62.55
2023-04-15T13:37:54.766Z,62.34
2023-04-15T13:40:22.044Z,61.88
2023-04-15T13:42:49.336Z,61.33
2023-04-15T13:45:16.622Z,60.56
2023-04-15T13:47:44.008Z,60.67
2023-04-15T13:50:11.659Z,60.38
2023-04-15T13:52:38.905Z,61.12
2023-04-15T13:55:18.758Z,61.90
2023-04-15T13:57:47.938Z,61.55
2023-04-15T14:00:15.808Z,60.75
2023-04-15T14:02:43.237Z,60.98
2023-04-15T14:05:11.524Z,60.65
2023-04-15T14:07:38.861Z,60.21
2023-04-15T14:10:06.670Z,61.13
2023-04-15T14:12:33.921Z,61.97
2023-04-15T14:15:01.240Z,61.06
2023-04-15T14:17:28.556Z,61.43
2023-04-15T14:19:55.874Z,61.05
2023-04-15T14:22:23.070Z,60.80
2023-04-15T14:24:50.320Z,61.32
2023-04-15T14:27:17.528Z,60.73
2023-04-15T14:29:44.867Z,61.24
2023-04-15T14:32:12.878Z,61.43
2023-04-15T14:34:41.121Z,63.12
2023-04-15T14:37:08.368Z,63.97
2023-04-15T14:39:35.662Z,65.01
2023-04-15T14:42:02.848Z,65.05
2023-04-15T14:46:57.297Z,65.59
2023-04-15T14:49:24.720Z,65.60
2023-04-15T14:51:52.037Z,66.28
2023-04-15T14:54:20.726Z,65.33
2023-04-15T14:56:49.786Z,65.35
2023-04-15T14:59:17.195Z,65.40
2023-04-15T15:01:44.628Z,65.96
2023-04-15T15:04:12.311Z,66.56
2023-04-15T15:06:40.504Z,66.92
2023-04-15T15:09:08.131Z,67.92
2023-04-15T15:11:35.372Z,67.09
2023-04-15T15:14:02.749Z,67.04
2023-04-15T15:16:30.126Z,66.84
2023-04-15T15:18:57.499Z,67.04
2023-04-15T15:21:24.721Z,67.05
2023-04-15T15:23:52.188Z,66.83
2023-04-15T15:26:19.803Z,67.07
2023-04-15T15:28:47.204Z,67.57
2023-04-15T15:31:14.828Z,67.88
2023-04-15T15:33:42.167Z,67.77
2023-04-15T15:36:11.307Z,68.26
2023-04-15T15:38:38.632Z,68.32
2023-04-15T15:41:06.052Z,68.86
2023-04-15T15:43:33.434Z,69.26
2023-04-15T15:46:01.653Z,68.77
2023-04-15T15:48:29.073Z,68.66
2023-04-15T15:50:56.441Z,68.13
2023-04-15T15:53:25.745Z,68.16
2023-04-15T15:55:53.890Z,68.69
2023-04-15T15:58:21.522Z,68.47
2023-04-15T16:00:48.765Z,68.52
2023-04-15T16:03:16.504Z,68.95
2023-04-15T16:05:44.257Z,68.62
2023-04-15T16:08:11.532Z,69.36
2023-04-15T16:10:38.849Z,69.66
2023-04-15T16:13:06.227Z,69.86
2023-04-15T16:15:34.649Z,69.36
2023-04-15T16:18:02.162Z,69.46
2023-04-15T16:20:29.450Z,69.52
2023-04-15T16:22:58.613Z,69.10
2023-04-15T16:25:26.136Z,70.35
2023-04-15T16:28:03.056Z,70.28
2023-04-15T16:30:37.622Z,70.50
2023-04-15T16:33:05.750Z,70.46
2023-04-15T16:35:34.619Z,70.85
2023-04-15T16:38:02.535Z,71.00
2023-04-15T16:40:29.843Z,70.84
2023-04-15T16:42:57.292Z,70.94
2023-04-15T16:45:25.127Z,70.85
2023-04-15T16:47:52.489Z,71.43
2023-04-15T16:50:19.920Z,71.38
2023-04-15T16:52:47.211Z,72.06
2023-04-15T16:55:14.561Z,72.03
2023-04-15T16:58:01.596Z,72.83
2023-04-15T17:00:29.460Z,73.46
2023-04-15T17:02:56.828Z,73.94
2023-04-15T17:05:24.435Z,73.87
2023-04-15T17:07:51.705Z,74.10
2023-04-15T17:10:19.160Z,74.18
2023-04-15T17:12:46.623Z,74.24
2023-04-15T17:15:13.970Z,74.33
2023-04-15T17:17:41.348Z,73.84
2023-04-15T17:20:08.933Z,74.50
2023-04-15T17:22:36.569Z,74.64
2023-04-15T17:25:05.019Z,74.98
2023-04-15T17:27:32.384Z,76.15
2023-04-15T17:29:59.731Z,76.34
2023-04-15T17:32:32.105Z,76.41
2023-04-15T17:34:59.627Z,76.84
2023-04-15T17:37:27.209Z,77.17
2023-04-15T17:39:54.608Z,77.52
2023-04-15T17:42:23.395Z,77.54
2023-04-15T17:44:50.802Z,77.72
2023-04-15T17:47:18.051Z,77.77
2023-04-15T17:49:45.392Z,78.11
2023-04-15T17:52:12.695Z,77.81
2023-04-15T17:54:40.131Z,77.98
2023-04-15T17:57:07.461Z,78.16
2023-04-15T17:59:34.870Z,78.38
2023-04-15T18:02:02.567Z,78.38
2023-04-15T18:04:30.160Z,78.12
2023-04-15T18:06:57.488Z,77.64
2023-04-15T18:09:24.769Z,78.50
2023-04-15T18:11:52.094Z,78.60
2023-04-15T18:14:32.954Z,78.84
2023-04-15T18:17:05.336Z,78.75
2023-04-15T18:19:33.289Z,78.87
2023-04-15T18:22:00.914Z,79.25
2023-04-15T18:24:28.627Z,79.43
2023-04-15T18:26:56.778Z,79.57
2023-04-15T18:29:24.139Z,80.12
2023-04-15T18:31:52.583Z,80.29
2023-04-15T18:34:20.059Z,80.74
2023-04-15T18:36:47.367Z,80.92
2023-04-15T18:39:14.789Z,81.67
2023-04-15T18:41:42.182Z,81.49
2023-04-15T18:44:09.607Z,81.46
2023-04-15T18:46:36.940Z,81.98
2023-04-15T18:49:04.885Z,82.11
2023-04-15T18:51:33.046Z,81.71
2023-04-15T18:54:00.452Z,82.02
2023-04-15T18:56:27.726Z,81.82
2023-04-15T18:59:28.252Z,81.79
2023-04-15T19:01:42.327Z,81.77
2023-04-15T19:04:10.647Z,81.74
2023-04-15T19:06:38.222Z,81.77
2023-04-15T19:09:05.867Z,81.69
2023-04-15T19:11:33.387Z,81.72
2023-04-15T19:14:01.769Z,81.35
2023-04-15T19:16:29.067Z,81.60
2023-04-15T19:18:56.563Z,81.40
2023-04-15T19:21:24.011Z,81.33
2023-04-15T19:23:51.416Z,81.21
2023-04-15T19:26:18.715Z,81.00
2023-04-15T19:28:46.001Z,81.31
2023-04-15T19:31:13.543Z,81.22
2023-04-15T19:33:40.912Z,81.44
2023-04-15T19:36:08.181Z,81.65
2023-04-15T19:38:36.411Z,81.29
2023-04-15T19:41:04.361Z,81.26
2023-04-15T19:43:33.114Z,82.20
2023-04-15T19:46:00.556Z,82.36
2023-04-15T19:48:27.935Z,82.51
2023-04-15T19:50:55.347Z,82.37
2023-04-15T19:53:22.520Z,82.39
2023-04-15T19:55:49.805Z,82.42
2023-04-15T19:58:17.262Z,82.71
2023-04-15T20:00:44.502Z,82.65
2023-04-15T20:03:12.080Z,82.62
2023-04-15T20:05:39.535Z,82.82
2023-04-15T20:08:06.803Z,82.94
2023-04-15T20:10:34.251Z,82.82
2023-04-15T20:13:01.550Z,83.06
2023-04-15T20:15:29.053Z,82.96
2023-04-15T20:17:56.342Z,82.99
2023-04-15T20:20:23.750Z,82.96
2023-04-15T20:22:51.142Z,82.59
2023-04-15T20:25:18.832Z,82.64
2023-04-15T20:27:47.173Z,82.31
2023-04-15T20:30:14.533Z,82.89
2023-04-15T20:32:41.984Z,82.91
2023-04-15T20:35:09.494Z,83.29
2023-04-15T20:37:37.858Z,83.24
2023-04-15T20:40:05.499Z,83.39
2023-04-15T20:42:36.870Z,84.31
2023-04-15T20:45:04.625Z,84.40
2023-04-15T20:47:31.958Z,84.73
2023-04-15T20:49:59.272Z,84.68
2023-04-15T20:52:26.570Z,85.05
2023-04-15T20:54:53.802Z,85.55
2023-04-15T20:57:36.427Z,85.16
2023-04-15T21:00:05.304Z,84.86
2023-04-15T21:02:32.813Z,84.99
2023-04-15T21:05:00.201Z,85.00
2023-04-15T21:07:27.465Z,84.63
2023-04-15T21:09:56.394Z,85.36
2023-04-15T21:12:23.603Z,85.67
2023-04-15T21:14:51.194Z,85.43
2023-04-15T21:17:18.538Z,85.60
2023-04-15T21:19:46.153Z,85.73
2023-04-15T21:22:13.464Z,85.88
2023-04-15T21:24:40.942Z,85.64
2023-04-15T21:27:08.229Z,85.57
2023-04-15T21:29:35.523Z,85.86
2023-04-15T21:32:02.789Z,86.12
2023-04-15T21:34:30.344Z,85.55
2023-04-15T21:36:57.653Z,85.75
2023-04-15T21:39:25.430Z,86.02
2023-04-15T21:41:52.777Z,86.17
2023-04-15T21:44:20.035Z,86.54
2023-04-15T21:46:47.373Z,86.88
2023-04-15T21:49:14.763Z,86.92
2023-04-15T21:51:42.115Z,86.83
2023-04-15T21:54:09.413Z,86.66
2023-04-15T21:56:38.325Z,86.41
2023-04-15T21:59:05.753Z,86.02
2023-04-15T22:01:33.298Z,85.90
2023-04-15T22:04:00.640Z,85.76
2023-04-15T22:06:27.987Z,85.55
2023-04-15T22:09:10.673Z,85.65
2023-04-15T22:11:39.622Z,86.31
2023-04-15T22:14:06.932Z,85.86
2023-04-15T22:16:34.280Z,85.77
2023-04-15T22:19:03.445Z,85.85
2023-04-15T22:21:30.822Z,85.82
2023-04-15T22:24:39.390Z,85.61
2023-04-15T22:26:45.418Z,85.46
2023-04-15T22:29:12.581Z,85.70
2023-04-15T22:31:39.925Z,85.39
2023-04-15T22:34:07.175Z,85.16
2023-04-15T22:36:34.582Z,85.22
2023-04-15T22:39:01.840Z,85.08
2023-04-15T22:41:29.118Z,84.84
2023-04-15T22:43:56.381Z,85.06
2023-04-15T22:46:23.652Z,85.50
2023-04-15T22:48:51.070Z,85.31
2023-04-15T22:51:23.111Z,85.26
2023-04-15T22:53:51.298Z,85.14
2023-04-15T22:56:21.036Z,84.93
2023-04-15T22:58:49.357Z,84.93
2023-04-15T23:01:18.336Z,85.08
2023-04-15T23:03:57.774Z,85.47
2023-04-15T23:06:33.149Z,85.27
2023-04-15T23:09:00.368Z,84.94
2023-04-15T23:11:27.666Z,84.70
2023-04-15T23:13:54.872Z,84.64
2023-04-15T23:16:22.834Z,84.51
2023-04-15T23:18:50.130Z,84.39
2023-04-15T23:21:17.521Z,84.52
2023-04-15T23:23:44.896Z,85.18
2023-04-15T23:26:12.337Z,85.26
2023-04-15T23:28:39.570Z,84.86
2023-04-15T23:31:07.427Z,84.51
2023-04-15T23:33:34.835Z,84.70
2023-04-15T23:36:02.355Z,84.99
2023-04-15T23:38:29.619Z,84.87
2023-04-15T23:40:56.929Z,84.94
2023-04-15T23:43:24.169Z,85.19
2023-04-15T23:45:51.529Z,85.46
2023-04-15T23:48:18.770Z,85.50
2023-04-15T23:50:46.044Z,85.59
2023-04-15T23:53:13.208Z,86.02
2023-04-15T23:55:40.579Z,85.89
2023-04-15T23:58:07.738Z,86.41
